createdAt,value
2017-05-15T00:01:09.835Z,931.07
2017-05-15T00:02:22.344Z,931.09
2017-05-15T00:03:35.353Z,931.14
2017-05-15T00:04:47.858Z,931.1
2017-05-15T00:06:00.857Z,931.11
2017-05-15T00:07:14.057Z,931.16
2017-05-15T00:08:27.067Z,931.18
2017-05-15T00:09:40.070Z,931.15
2017-05-15T00:10:53.079Z,931.25
2017-05-15T00:12:06.077Z,931.24
2017-05-15T00:13:18.522Z,931.26
2017-05-15T00:14:31.443Z,931.25
2017-05-15T00:15:44.368Z,931.25
2017-05-15T00:16:57.292Z,931.19
2017-05-15T00:18:09.433Z,931.21
2017-05-15T00:19:21.866Z,931.27
2017-05-15T00:20:34.310Z,931.36
2017-05-15T00:21:46.799Z,931.32
2017-05-15T00:22:59.725Z,931.36
2017-05-15T00:24:12.371Z,931.36
2017-05-15T00:25:24.818Z,931.33
2017-05-15T00:26:37.739Z,931.4
2017-05-15T00:27:50.662Z,931.35
2017-05-15T00:29:03.093Z,931.36
2017-05-15T00:30:16.011Z,931.34
2017-05-15T00:31:28.436Z,931.33
2017-05-15T00:32:40.865Z,931.36
2017-05-15T00:33:53.796Z,931.38
2017-05-15T00:35:06.715Z,931.38
2017-05-15T00:36:19.149Z,931.37
2017-05-15T00:37:32.069Z,931.37
2017-05-15T00:38:44.499Z,931.39
2017-05-15T00:39:56.940Z,931.41
2017-05-15T00:41:09.373Z,931.37
2017-05-15T00:42:21.314Z,931.37
2017-05-15T00:43:33.742Z,931.37
2017-05-15T00:44:46.192Z,931.42
2017-05-15T00:45:59.116Z,931.38
2017-05-15T00:47:11.460Z,931.45
2017-05-15T00:48:24.244Z,931.4
2017-05-15T00:49:37.036Z,931.39
2017-05-15T00:50:49.830Z,931.4
2017-05-15T00:52:02.614Z,931.41
2017-05-15T00:53:13.957Z,931.41
2017-05-15T00:54:26.751Z,931.39
2017-05-15T00:55:39.064Z,931.41
2017-05-15T00:56:52.054Z,931.42
2017-05-15T00:58:04.358Z,931.43
2017-05-15T00:59:17.174Z,931.47
2017-05-15T01:00:29.967Z,931.44
2017-05-15T01:01:42.472Z,931.48
2017-05-15T01:02:55.273Z,931.47
2017-05-15T01:04:07.579Z,931.52
2017-05-15T01:05:19.894Z,931.52
2017-05-15T01:06:32.199Z,931.55
2017-05-15T01:07:44.501Z,931.58
2017-05-15T01:08:57.293Z,931.52
2017-05-15T01:10:10.085Z,931.54
2017-05-15T01:11:22.874Z,931.57
2017-05-15T01:12:35.661Z,931.51
2017-05-15T01:13:47.971Z,931.53
2017-05-15T01:15:00.766Z,931.51
2017-05-15T01:16:13.074Z,931.51
2017-05-15T01:17:25.870Z,931.57
2017-05-15T01:18:38.857Z,931.54
2017-05-15T01:19:51.650Z,931.56
2017-05-15T01:21:04.445Z,931.6
2017-05-15T01:22:17.237Z,931.61
2017-05-15T01:23:30.032Z,931.67
2017-05-15T01:24:42.342Z,931.63
2017-05-15T01:25:55.145Z,931.68
2017-05-15T01:27:07.938Z,931.66
2017-05-15T01:28:20.727Z,931.7
2017-05-15T01:29:33.820Z,931.72
2017-05-15T01:30:46.621Z,931.71
2017-05-15T01:31:59.436Z,931.74
2017-05-15T01:33:12.363Z,931.76
2017-05-15T01:34:24.796Z,931.71
2017-05-15T01:35:37.717Z,931.72
2017-05-15T01:36:50.635Z,931.7
2017-05-15T01:38:03.555Z,931.74
2017-05-15T01:39:16.534Z,931.71
2017-05-15T01:40:29.754Z,931.73
2017-05-15T01:41:42.676Z,931.72
2017-05-15T01:42:55.605Z,931.71
2017-05-15T01:44:08.526Z,931.7
2017-05-15T01:45:21.749Z,931.73
2017-05-15T01:46:34.673Z,931.74
2017-05-15T01:47:47.605Z,931.75
2017-05-15T01:49:00.529Z,931.78
2017-05-15T01:50:13.452Z,931.77
2017-05-15T01:51:26.086Z,931.81
2017-05-15T01:52:38.512Z,931.84
2017-05-15T01:53:51.434Z,931.84
2017-05-15T01:55:04.381Z,931.86
2017-05-15T01:56:17.606Z,931.83
2017-05-15T01:57:30.528Z,931.84
2017-05-15T01:58:41.977Z,931.83
2017-05-15T01:59:54.899Z,931.83
2017-05-15T02:01:07.830Z,931.84
2017-05-15T02:02:21.074Z,931.84
2017-05-15T02:03:34.048Z,931.86
2017-05-15T02:04:46.969Z,931.85
2017-05-15T02:05:59.891Z,931.86
2017-05-15T02:07:12.323Z,931.89
2017-05-15T02:08:25.246Z,931.85
2017-05-15T02:09:38.167Z,931.87
2017-05-15T02:10:50.602Z,931.87
2017-05-15T02:12:03.522Z,931.86
2017-05-15T02:13:30.491Z,931.83
2017-05-15T02:14:42.446Z,931.86
2017-05-15T02:15:55.370Z,931.88
2017-05-15T02:17:07.735Z,931.9
2017-05-15T02:18:20.040Z,931.87
2017-05-15T02:19:32.825Z,931.95
2017-05-15T02:20:45.616Z,931.95
2017-05-15T02:21:58.401Z,931.95
2017-05-15T02:23:11.184Z,931.94
2017-05-15T02:24:23.487Z,931.9
2017-05-15T02:25:35.317Z,931.92
2017-05-15T02:26:47.620Z,931.9
2017-05-15T02:28:00.405Z,931.9
2017-05-15T02:29:13.488Z,931.93
2017-05-15T02:30:25.792Z,931.93
2017-05-15T02:31:38.584Z,931.95
2017-05-15T02:32:50.887Z,931.93
2017-05-15T02:34:03.676Z,931.91
2017-05-15T02:35:15.978Z,931.89
2017-05-15T02:36:28.765Z,931.89
2017-05-15T02:37:41.064Z,931.9
2017-05-15T02:38:53.369Z,931.88
2017-05-15T02:40:06.155Z,931.83
2017-05-15T02:41:17.978Z,931.84
2017-05-15T02:42:30.761Z,931.8
2017-05-15T02:43:43.555Z,931.83
2017-05-15T02:44:55.875Z,931.87
2017-05-15T02:46:08.182Z,931.83
2017-05-15T02:47:20.480Z,931.86
2017-05-15T02:48:32.788Z,931.86
2017-05-15T02:49:44.615Z,931.87
2017-05-15T02:50:56.916Z,931.92
2017-05-15T02:52:09.701Z,931.88
2017-05-15T02:53:22.002Z,931.93
2017-05-15T02:54:34.788Z,931.92
2017-05-15T02:55:47.582Z,931.98
2017-05-15T02:57:00.668Z,932.02
2017-05-15T02:58:13.450Z,932.05
2017-05-15T02:59:26.232Z,932.06
2017-05-15T03:00:39.015Z,932.08
2017-05-15T03:01:52.023Z,932.1
2017-05-15T03:03:04.950Z,932.08
2017-05-15T03:04:17.876Z,932.08
2017-05-15T03:05:30.797Z,932.07
2017-05-15T03:06:43.714Z,932.04
2017-05-15T03:07:56.444Z,932.02
2017-05-15T03:09:09.373Z,931.97
2017-05-15T03:10:22.297Z,931.97
2017-05-15T03:11:35.218Z,931.98
2017-05-15T03:12:48.501Z,932.04
2017-05-15T03:14:00.939Z,932.02
2017-05-15T03:15:13.942Z,932.05
2017-05-15T03:16:26.940Z,932.04
2017-05-15T03:17:39.444Z,932.13
2017-05-15T03:18:52.686Z,932.11
2017-05-15T03:20:05.699Z,932.13
2017-05-15T03:21:18.208Z,932.1
2017-05-15T03:22:30.710Z,932.1
2017-05-15T03:23:43.913Z,932.13
2017-05-15T03:24:56.923Z,932.19
2017-05-15T03:26:09.429Z,932.2
2017-05-15T03:27:21.942Z,932.21
2017-05-15T03:28:34.987Z,932.23
2017-05-15T03:29:47.690Z,932.16
2017-05-15T03:31:00.690Z,932.21
2017-05-15T03:32:13.196Z,932.28
2017-05-15T03:33:26.247Z,932.32
2017-05-15T03:34:39.050Z,932.3
2017-05-15T03:35:51.563Z,932.3
2017-05-15T03:37:04.576Z,932.3
2017-05-15T03:38:17.577Z,932.35
2017-05-15T03:39:30.090Z,932.4
2017-05-15T03:40:42.793Z,932.39
2017-05-15T03:41:55.796Z,932.31
2017-05-15T03:43:07.802Z,932.31
2017-05-15T03:44:20.309Z,932.31
2017-05-15T03:45:33.336Z,932.3
2017-05-15T03:46:45.836Z,932.29
2017-05-15T03:47:58.841Z,932.29
2017-05-15T03:49:11.339Z,932.28
2017-05-15T03:50:24.396Z,932.29
2017-05-15T03:51:37.318Z,932.31
2017-05-15T03:52:50.235Z,932.35
2017-05-15T03:54:03.158Z,932.32
2017-05-15T03:55:16.079Z,932.31
2017-05-15T03:56:29.198Z,932.3
2017-05-15T03:57:41.625Z,932.31
2017-05-15T03:58:54.544Z,932.29
2017-05-15T04:00:07.465Z,932.32
2017-05-15T04:01:20.381Z,932.33
2017-05-15T04:02:33.602Z,932.31
2017-05-15T04:03:46.031Z,932.28
2017-05-15T04:04:58.459Z,932.29
2017-05-15T04:06:11.382Z,932.27
2017-05-15T04:07:23.814Z,932.27
2017-05-15T04:08:36.242Z,932.26
2017-05-15T04:09:48.719Z,932.27
2017-05-15T04:11:01.639Z,932.25
2017-05-15T04:12:14.559Z,932.21
2017-05-15T04:13:27.285Z,932.26
2017-05-15T04:14:39.734Z,932.23
2017-05-15T04:15:52.660Z,932.16
2017-05-15T04:17:05.579Z,932.16
2017-05-15T04:18:18.502Z,932.14
2017-05-15T04:19:31.417Z,932.13
2017-05-15T04:20:43.852Z,932.13
2017-05-15T04:21:56.770Z,932.05
2017-05-15T04:23:08.714Z,932.07
2017-05-15T04:24:21.937Z,932.08
2017-05-15T04:25:34.857Z,932.06
2017-05-15T04:26:47.780Z,932.04
2017-05-15T04:28:00.208Z,931.97
2017-05-15T04:29:12.637Z,932.02
2017-05-15T04:30:25.554Z,932.04
2017-05-15T04:31:38.468Z,932.06
2017-05-15T04:32:50.888Z,932.06
2017-05-15T04:34:03.791Z,932.05
2017-05-15T04:35:15.717Z,932
2017-05-15T04:36:28.618Z,931.99
2017-05-15T04:37:41.519Z,931.94
2017-05-15T04:38:54.418Z,931.94
2017-05-15T04:40:06.827Z,932
2017-05-15T04:41:19.724Z,932
2017-05-15T04:42:32.620Z,932.01
2017-05-15T04:43:45.520Z,932.04
2017-05-15T04:44:58.425Z,932.04
2017-05-15T04:46:11.042Z,932.07
2017-05-15T04:47:23.940Z,932.07
2017-05-15T04:48:36.839Z,932.08
2017-05-15T04:49:49.738Z,932.13
2017-05-15T04:51:02.640Z,932.11
2017-05-15T04:52:15.049Z,932.1
2017-05-15T04:53:27.952Z,932.06
2017-05-15T04:54:40.367Z,932.09
2017-05-15T04:55:53.274Z,932.07
2017-05-15T04:57:06.183Z,932.06
2017-05-15T04:58:18.598Z,932.06
2017-05-15T04:59:31.500Z,932.04
2017-05-15T05:00:43.914Z,932.07
2017-05-15T05:01:56.810Z,932.06
2017-05-15T05:03:09.753Z,932.1
2017-05-15T05:04:22.161Z,932.07
2017-05-15T05:05:34.564Z,932.05
2017-05-15T05:06:46.969Z,932.07
2017-05-15T05:08:00.071Z,932.01
2017-05-15T05:09:12.488Z,932.05
2017-05-15T05:10:25.029Z,932.04
2017-05-15T05:11:38.067Z,932.05
2017-05-15T05:12:50.813Z,932.04
2017-05-15T05:14:03.855Z,932.02
2017-05-15T05:15:16.899Z,931.99
2017-05-15T05:16:29.937Z,931.98
2017-05-15T05:17:42.480Z,931.99
2017-05-15T05:18:55.824Z,932
2017-05-15T05:20:08.869Z,932.03
2017-05-15T05:21:21.908Z,932.01
2017-05-15T05:22:34.959Z,932.01
2017-05-15T05:23:47.714Z,932.04
2017-05-15T05:25:00.794Z,931.98
2017-05-15T05:26:13.338Z,932.01
2017-05-15T05:27:26.386Z,932.03
2017-05-15T05:28:39.435Z,932.04
2017-05-15T05:29:52.679Z,932.06
2017-05-15T05:31:05.722Z,932.02
2017-05-15T05:32:18.275Z,932
2017-05-15T05:33:30.819Z,932.02
2017-05-15T05:34:43.658Z,931.97
2017-05-15T05:35:56.704Z,931.94
2017-05-15T05:37:09.754Z,931.94
2017-05-15T05:38:22.283Z,931.97
2017-05-15T05:39:35.182Z,931.95
2017-05-15T05:40:48.148Z,931.97
2017-05-15T05:42:01.045Z,931.99
2017-05-15T05:43:13.942Z,931.97
2017-05-15T05:44:26.841Z,931.94
2017-05-15T05:45:39.249Z,931.96
2017-05-15T05:46:52.142Z,931.92
2017-05-15T05:48:04.550Z,931.88
2017-05-15T05:49:17.448Z,931.92
2017-05-15T05:50:29.864Z,931.87
2017-05-15T05:51:42.278Z,931.83
2017-05-15T05:52:54.685Z,931.8
2017-05-15T05:54:07.093Z,931.8
2017-05-15T05:55:19.506Z,931.74
2017-05-15T05:56:32.406Z,931.73
2017-05-15T05:57:45.305Z,931.75
2017-05-15T05:58:58.206Z,931.74
2017-05-15T06:00:11.101Z,931.73
2017-05-15T06:01:23.504Z,931.72
2017-05-15T06:02:36.706Z,931.69
2017-05-15T06:03:49.143Z,931.71
2017-05-15T06:05:02.045Z,931.68
2017-05-15T06:06:14.939Z,931.7
2017-05-15T06:07:28.142Z,931.71
2017-05-15T06:08:40.553Z,931.68
2017-05-15T06:09:52.965Z,931.69
2017-05-15T06:11:05.380Z,931.7
2017-05-15T06:12:17.792Z,931.68
2017-05-15T06:13:30.692Z,931.68
2017-05-15T06:14:43.594Z,931.75
2017-05-15T06:15:56.497Z,931.7
2017-05-15T06:17:09.402Z,931.71
2017-05-15T06:18:22.302Z,931.71
2017-05-15T06:19:35.209Z,931.72
2017-05-15T06:20:47.614Z,931.72
2017-05-15T06:22:00.023Z,931.72
2017-05-15T06:23:11.943Z,931.71
2017-05-15T06:24:24.649Z,931.67
2017-05-15T06:25:37.552Z,931.68
2017-05-15T06:26:50.458Z,931.66
2017-05-15T06:28:03.358Z,931.67
2017-05-15T06:29:16.253Z,931.65
2017-05-15T06:30:29.153Z,931.65
2017-05-15T06:31:42.060Z,931.62
2017-05-15T06:32:54.954Z,931.59
2017-05-15T06:34:07.852Z,931.63
2017-05-15T06:35:20.258Z,931.62
2017-05-15T06:36:33.150Z,931.61
2017-05-15T06:37:45.078Z,931.59
2017-05-15T06:38:57.977Z,931.59
2017-05-15T06:40:11.177Z,931.6
2017-05-15T06:41:24.091Z,931.59
2017-05-15T06:42:36.986Z,931.58
2017-05-15T06:43:49.890Z,931.58
2017-05-15T06:45:02.303Z,931.65
2017-05-15T06:46:15.254Z,931.63
2017-05-15T06:47:27.171Z,931.66
2017-05-15T06:48:40.072Z,931.63
2017-05-15T06:49:52.976Z,931.67
2017-05-15T06:51:06.077Z,931.69
2017-05-15T06:52:18.983Z,931.7
2017-05-15T06:53:31.882Z,931.68
2017-05-15T06:54:44.783Z,931.65
2017-05-15T06:55:57.680Z,931.63
2017-05-15T06:57:10.094Z,931.67
2017-05-15T06:58:23.007Z,931.63
2017-05-15T06:59:35.922Z,931.67
2017-05-15T07:00:48.818Z,931.64
2017-05-15T07:02:01.231Z,931.65
2017-05-15T07:03:13.647Z,931.65
2017-05-15T07:04:26.545Z,931.65
2017-05-15T07:05:39.439Z,931.65
2017-05-15T07:06:52.334Z,931.61
2017-05-15T07:08:05.239Z,931.61
2017-05-15T07:09:17.164Z,931.59
2017-05-15T07:10:29.588Z,931.61
2017-05-15T07:11:41.508Z,931.6
2017-05-15T07:12:53.917Z,931.59
2017-05-15T07:14:06.813Z,931.63
2017-05-15T07:15:19.222Z,931.66
2017-05-15T07:16:32.122Z,931.71
2017-05-15T07:17:44.040Z,931.73
2017-05-15T07:18:56.939Z,931.74
2017-05-15T07:20:09.354Z,931.77
2017-05-15T07:21:22.250Z,931.75
2017-05-15T07:22:35.162Z,931.77
2017-05-15T07:23:47.876Z,931.78
2017-05-15T07:25:00.780Z,931.8
2017-05-15T07:26:12.704Z,931.79
2017-05-15T07:27:25.633Z,931.79
2017-05-15T07:28:38.535Z,931.77
2017-05-15T07:29:50.945Z,931.79
2017-05-15T07:31:03.340Z,931.79
2017-05-15T07:32:15.158Z,931.78
2017-05-15T07:33:27.936Z,931.73
2017-05-15T07:34:41.027Z,931.75
2017-05-15T07:35:53.805Z,931.7
2017-05-15T07:37:06.103Z,931.72
2017-05-15T07:38:18.397Z,931.73
2017-05-15T07:39:31.177Z,931.73
2017-05-15T07:40:44.159Z,931.72
2017-05-15T07:41:56.938Z,931.71
2017-05-15T07:43:09.720Z,931.71
2017-05-15T07:44:22.503Z,931.75
2017-05-15T07:45:35.291Z,931.75
2017-05-15T07:46:47.589Z,931.79
2017-05-15T07:48:00.367Z,931.77
2017-05-15T07:49:13.147Z,931.77
2017-05-15T07:50:25.456Z,931.78
2017-05-15T07:51:38.235Z,931.77
2017-05-15T07:52:50.536Z,931.76
2017-05-15T07:54:03.344Z,931.74
2017-05-15T07:55:15.638Z,931.73
2017-05-15T07:56:28.661Z,931.76
2017-05-15T07:57:40.955Z,931.75
2017-05-15T07:58:53.774Z,931.75
2017-05-15T08:00:06.560Z,931.75
2017-05-15T08:01:19.340Z,931.77
2017-05-15T08:02:32.120Z,931.78
2017-05-15T08:03:43.938Z,931.78
2017-05-15T08:04:56.718Z,931.77
2017-05-15T08:06:09.497Z,931.76
2017-05-15T08:07:22.581Z,931.83
2017-05-15T08:08:35.359Z,931.76
2017-05-15T08:09:47.665Z,931.81
2017-05-15T08:11:00.451Z,931.83
2017-05-15T08:12:13.229Z,931.78
2017-05-15T08:13:25.728Z,931.81
2017-05-15T08:14:38.024Z,931.83
2017-05-15T08:15:50.326Z,931.85
2017-05-15T08:17:03.107Z,931.85
2017-05-15T08:18:15.410Z,931.82
2017-05-15T08:19:28.195Z,931.84
2017-05-15T08:20:40.506Z,931.81
2017-05-15T08:21:53.285Z,931.81
2017-05-15T08:23:05.584Z,931.83
2017-05-15T08:24:18.568Z,931.85
2017-05-15T08:25:31.345Z,931.83
2017-05-15T08:26:43.641Z,931.84
2017-05-15T08:27:55.939Z,931.87
2017-05-15T08:29:08.726Z,931.89
2017-05-15T08:30:20.543Z,931.86
2017-05-15T08:31:33.325Z,931.89
2017-05-15T08:32:45.636Z,931.91
2017-05-15T08:33:58.420Z,931.88
2017-05-15T08:35:11.018Z,931.9
2017-05-15T08:36:23.314Z,931.95
2017-05-15T08:37:36.093Z,931.98
2017-05-15T08:38:48.873Z,931.96
2017-05-15T08:40:01.850Z,931.95
2017-05-15T08:41:14.628Z,931.96
2017-05-15T08:42:27.408Z,931.99
2017-05-15T08:43:40.189Z,932.01
2017-05-15T08:44:52.975Z,932.01
2017-05-15T08:46:05.961Z,932.06
2017-05-15T08:47:18.740Z,932.06
2017-05-15T08:48:31.520Z,932.06
2017-05-15T08:49:44.304Z,932.14
2017-05-15T08:50:57.084Z,932.13
2017-05-15T08:52:09.869Z,932.17
2017-05-15T08:53:22.648Z,932.17
2017-05-15T08:54:34.962Z,932.19
2017-05-15T08:55:47.266Z,932.19
2017-05-15T08:57:00.045Z,932.2
2017-05-15T08:58:12.346Z,932.2
2017-05-15T08:59:25.135Z,932.22
2017-05-15T09:00:37.433Z,932.24
2017-05-15T09:01:49.253Z,932.24
2017-05-15T09:03:02.031Z,932.25
2017-05-15T09:04:14.812Z,932.25
2017-05-15T09:05:27.595Z,932.25
2017-05-15T09:06:39.895Z,932.26
2017-05-15T09:08:06.268Z,932.29
2017-05-15T09:09:18.563Z,932.26
2017-05-15T09:10:31.347Z,932.26
2017-05-15T09:11:44.126Z,932.28
2017-05-15T09:12:57.215Z,932.29
2017-05-15T09:14:09.512Z,932.3
2017-05-15T09:15:21.333Z,932.32
2017-05-15T09:16:34.113Z,932.34
2017-05-15T09:17:46.613Z,932.31
2017-05-15T09:18:58.909Z,932.37
2017-05-15T09:20:11.205Z,932.36
2017-05-15T09:21:23.028Z,932.36
2017-05-15T09:22:35.813Z,932.38
2017-05-15T09:23:48.596Z,932.37
2017-05-15T09:25:00.895Z,932.39
2017-05-15T09:26:12.709Z,932.44
2017-05-15T09:27:25.487Z,932.43
2017-05-15T09:28:37.508Z,932.46
2017-05-15T09:29:50.284Z,932.51
2017-05-15T09:31:03.073Z,932.51
2017-05-15T09:32:15.368Z,932.53
2017-05-15T09:33:27.667Z,932.54
2017-05-15T09:34:40.185Z,932.6
2017-05-15T09:35:52.971Z,932.59
2017-05-15T09:37:05.751Z,932.61
2017-05-15T09:38:18.533Z,932.64
2017-05-15T09:39:30.829Z,932.66
2017-05-15T09:40:43.134Z,932.61
2017-05-15T09:41:55.918Z,932.65
2017-05-15T09:43:08.695Z,932.65
2017-05-15T09:44:21.516Z,932.65
2017-05-15T09:45:34.597Z,932.68
2017-05-15T09:46:47.376Z,932.68
2017-05-15T09:48:00.161Z,932.67
2017-05-15T09:49:11.982Z,932.69
2017-05-15T09:50:24.001Z,932.73
2017-05-15T09:51:36.784Z,932.77
2017-05-15T09:52:49.561Z,932.8
2017-05-15T09:54:01.858Z,932.82
2017-05-15T09:55:14.683Z,932.84
2017-05-15T09:56:27.461Z,932.84
2017-05-15T09:57:40.242Z,932.86
2017-05-15T09:58:53.027Z,932.9
2017-05-15T10:00:05.807Z,932.92
2017-05-15T10:01:17.827Z,932.95
2017-05-15T10:02:30.605Z,933
2017-05-15T10:03:43.385Z,933.01
2017-05-15T10:04:56.165Z,933.01
2017-05-15T10:06:08.463Z,933.04
2017-05-15T10:07:21.542Z,933.05
2017-05-15T10:08:34.322Z,933.09
2017-05-15T10:09:47.105Z,933.09
2017-05-15T10:10:59.884Z,933.12
2017-05-15T10:12:12.184Z,933.12
2017-05-15T10:13:24.964Z,933.12
2017-05-15T10:14:37.809Z,933.18
2017-05-15T10:15:50.108Z,933.17
2017-05-15T10:17:02.887Z,933.21
2017-05-15T10:18:15.664Z,933.24
2017-05-15T10:19:27.962Z,933.23
2017-05-15T10:20:40.277Z,933.28
2017-05-15T10:21:53.059Z,933.25
2017-05-15T10:23:06.040Z,933.29
2017-05-15T10:24:18.822Z,933.31
2017-05-15T10:25:31.599Z,933.31
2017-05-15T10:26:43.902Z,933.34
2017-05-15T10:27:56.206Z,933.39
2017-05-15T10:29:08.806Z,933.37
2017-05-15T10:30:21.103Z,933.43
2017-05-15T10:31:33.919Z,933.46
2017-05-15T10:32:46.833Z,933.48
2017-05-15T10:33:59.931Z,933.49
2017-05-15T10:35:11.366Z,933.51
2017-05-15T10:36:24.263Z,933.55
2017-05-15T10:37:37.166Z,933.59
2017-05-15T10:38:50.070Z,933.61
2017-05-15T10:40:02.968Z,933.62
2017-05-15T10:41:15.863Z,933.62
2017-05-15T10:42:28.764Z,933.64
2017-05-15T10:43:41.176Z,933.66
2017-05-15T10:44:54.080Z,933.68
2017-05-15T10:46:06.001Z,933.7
2017-05-15T10:47:17.437Z,933.69
2017-05-15T10:48:30.403Z,933.76
2017-05-15T10:49:43.306Z,933.73
2017-05-15T10:50:56.410Z,933.75
2017-05-15T10:52:08.815Z,933.78
2017-05-15T10:53:21.711Z,933.81
2017-05-15T10:54:34.607Z,933.83
2017-05-15T10:55:47.014Z,933.87
2017-05-15T10:56:59.421Z,933.86
2017-05-15T10:58:11.341Z,933.89
2017-05-15T10:59:23.750Z,933.91
2017-05-15T11:00:36.165Z,933.92
2017-05-15T11:01:49.068Z,933.93
2017-05-15T11:03:01.969Z,933.93
2017-05-15T11:04:14.375Z,933.97
2017-05-15T11:05:26.783Z,933.98
2017-05-15T11:06:39.677Z,933.97
2017-05-15T11:07:52.083Z,934.01
2017-05-15T11:09:04.497Z,934
2017-05-15T11:10:16.903Z,933.99
2017-05-15T11:11:29.799Z,934.01
2017-05-15T11:12:42.700Z,934.04
2017-05-15T11:13:54.616Z,934.03
2017-05-15T11:15:07.511Z,934.02
2017-05-15T11:16:19.904Z,934.06
2017-05-15T11:17:32.891Z,934.08
2017-05-15T11:18:45.200Z,934.07
2017-05-15T11:19:57.988Z,934.07
2017-05-15T11:21:10.772Z,934.14
2017-05-15T11:22:23.081Z,934.12
2017-05-15T11:23:35.868Z,934.15
2017-05-15T11:24:48.182Z,934.13
2017-05-15T11:26:00.970Z,934.2
2017-05-15T11:27:13.768Z,934.2
2017-05-15T11:28:26.553Z,934.27
2017-05-15T11:29:38.860Z,934.23
2017-05-15T11:30:51.649Z,934.25
2017-05-15T11:32:03.948Z,934.27
2017-05-15T11:33:15.764Z,934.3
2017-05-15T11:34:28.757Z,934.29
2017-05-15T11:35:41.542Z,934.3
2017-05-15T11:36:54.330Z,934.36
2017-05-15T11:38:07.110Z,934.37
2017-05-15T11:39:19.613Z,934.39
2017-05-15T11:40:32.395Z,934.33
2017-05-15T11:41:44.693Z,934.36
2017-05-15T11:42:57.476Z,934.37
2017-05-15T11:44:10.316Z,934.41
2017-05-15T11:45:23.107Z,934.41
2017-05-15T11:46:35.897Z,934.4
2017-05-15T11:47:48.680Z,934.35
2017-05-15T11:49:00.987Z,934.38
2017-05-15T11:50:13.296Z,934.41
2017-05-15T11:51:26.076Z,934.42
2017-05-15T11:52:38.856Z,934.43
2017-05-15T11:53:51.160Z,934.39
2017-05-15T11:55:03.948Z,934.4
2017-05-15T11:56:16.259Z,934.45
2017-05-15T11:57:29.040Z,934.41
2017-05-15T11:58:41.823Z,934.44
2017-05-15T11:59:54.606Z,934.46
2017-05-15T12:01:07.594Z,934.4
2017-05-15T12:02:20.378Z,934.39
2017-05-15T12:03:33.158Z,934.38
2017-05-15T12:04:45.964Z,934.4
2017-05-15T12:05:58.758Z,934.47
2017-05-15T12:07:11.537Z,934.41
2017-05-15T12:08:23.839Z,934.41
2017-05-15T12:09:35.675Z,934.46
2017-05-15T12:10:48.467Z,934.47
2017-05-15T12:12:00.771Z,934.44
2017-05-15T12:13:12.109Z,934.44
2017-05-15T12:14:24.940Z,934.42
2017-05-15T12:15:37.735Z,934.44
2017-05-15T12:16:50.039Z,934.42
2017-05-15T12:18:02.879Z,934.43
2017-05-15T12:19:15.664Z,934.46
2017-05-15T12:20:27.974Z,934.48
2017-05-15T12:21:40.810Z,934.48
2017-05-15T12:22:53.594Z,934.51
2017-05-15T12:24:06.383Z,934.52
2017-05-15T12:25:18.682Z,934.52
2017-05-15T12:26:31.471Z,934.56
2017-05-15T12:27:44.260Z,934.56
2017-05-15T12:28:57.344Z,934.58
2017-05-15T12:30:10.138Z,934.51
2017-05-15T12:31:22.445Z,934.56
2017-05-15T12:32:35.243Z,934.61
2017-05-15T12:33:47.769Z,934.58
2017-05-15T12:35:00.555Z,934.6
2017-05-15T12:36:12.860Z,934.61
2017-05-15T12:37:24.688Z,934.56
2017-05-15T12:38:36.989Z,934.57
2017-05-15T12:39:49.590Z,934.6
2017-05-15T12:41:02.391Z,934.64
2017-05-15T12:42:15.201Z,934.53
2017-05-15T12:43:27.984Z,934.53
2017-05-15T12:44:40.980Z,934.51
2017-05-15T12:45:54.073Z,934.55
2017-05-15T12:47:06.950Z,934.6
2017-05-15T12:48:19.251Z,934.61
2017-05-15T12:49:31.556Z,934.56
2017-05-15T12:50:43.857Z,934.61
2017-05-15T12:51:56.638Z,934.69
2017-05-15T12:53:09.422Z,934.64
2017-05-15T12:54:22.206Z,934.69
2017-05-15T12:55:34.511Z,934.66
2017-05-15T12:56:46.807Z,934.7
2017-05-15T12:57:59.113Z,934.73
2017-05-15T12:59:11.421Z,934.72
2017-05-15T13:00:24.255Z,934.73
2017-05-15T13:01:36.722Z,934.74
2017-05-15T13:02:49.506Z,934.75
2017-05-15T13:04:02.300Z,934.71
2017-05-15T13:05:14.599Z,934.74
2017-05-15T13:06:27.392Z,934.81
2017-05-15T13:07:40.390Z,934.79
2017-05-15T13:08:52.704Z,934.72
2017-05-15T13:10:05.487Z,934.74
2017-05-15T13:11:17.343Z,934.71
2017-05-15T13:12:30.031Z,934.73
2017-05-15T13:13:42.342Z,934.71
2017-05-15T13:14:54.647Z,934.75
2017-05-15T13:16:06.957Z,934.71
2017-05-15T13:17:18.806Z,934.75
2017-05-15T13:18:31.887Z,934.71
2017-05-15T13:19:44.679Z,934.74
2017-05-15T13:20:57.009Z,934.74
2017-05-15T13:22:09.339Z,934.7
2017-05-15T13:23:21.674Z,934.69
2017-05-15T13:24:34.671Z,934.72
2017-05-15T13:25:47.463Z,934.66
2017-05-15T13:27:00.254Z,934.67
2017-05-15T13:28:13.058Z,934.62
2017-05-15T13:29:26.055Z,934.62
2017-05-15T13:30:38.856Z,934.61
2017-05-15T13:31:51.637Z,934.62
2017-05-15T13:33:04.450Z,934.57
2017-05-15T13:34:16.748Z,934.52
2017-05-15T13:35:29.830Z,934.54
2017-05-15T13:36:42.610Z,934.57
2017-05-15T13:37:55.392Z,934.5
2017-05-15T13:39:08.183Z,934.48
2017-05-15T13:40:20.301Z,934.45
2017-05-15T13:41:32.618Z,934.47
2017-05-15T13:42:44.930Z,934.44
2017-05-15T13:43:56.752Z,934.47
2017-05-15T13:45:08.576Z,934.48
2017-05-15T13:46:21.660Z,934.5
2017-05-15T13:47:33.979Z,934.46
2017-05-15T13:48:46.761Z,934.43
2017-05-15T13:49:59.545Z,934.43
2017-05-15T13:51:11.894Z,934.43
2017-05-15T13:52:24.688Z,934.42
2017-05-15T13:53:37.467Z,934.43
2017-05-15T13:54:49.774Z,934.42
2017-05-15T13:56:02.558Z,934.39
2017-05-15T13:57:15.064Z,934.34
2017-05-15T13:58:26.402Z,934.36
2017-05-15T13:59:39.184Z,934.36
2017-05-15T14:00:51.973Z,934.43
2017-05-15T14:02:03.795Z,934.38
2017-05-15T14:03:16.095Z,934.41
2017-05-15T14:04:28.882Z,934.34
2017-05-15T14:05:41.663Z,934.34
2017-05-15T14:06:54.457Z,934.36
2017-05-15T14:08:06.955Z,934.35
2017-05-15T14:09:19.256Z,934.29
2017-05-15T14:10:32.041Z,934.27
2017-05-15T14:11:44.824Z,934.24
2017-05-15T14:12:57.904Z,934.22
2017-05-15T14:14:10.688Z,934.19
2017-05-15T14:15:22.988Z,934.22
2017-05-15T14:16:35.768Z,934.18
2017-05-15T14:17:48.557Z,934.17
2017-05-15T14:19:01.351Z,934.19
2017-05-15T14:20:14.144Z,934.2
2017-05-15T14:21:26.448Z,934.24
2017-05-15T14:22:38.758Z,934.21
2017-05-15T14:23:51.261Z,934.25
2017-05-15T14:25:04.045Z,934.24
2017-05-15T14:26:16.872Z,934.27
2017-05-15T14:27:29.182Z,934.25
2017-05-15T14:28:41.967Z,934.29
2017-05-15T14:29:54.753Z,934.21
2017-05-15T14:31:07.055Z,934.16
2017-05-15T14:32:19.853Z,934.17
2017-05-15T14:33:32.637Z,934.09
2017-05-15T14:34:45.426Z,934.14
2017-05-15T14:35:58.210Z,934.09
2017-05-15T14:37:10.512Z,934.12
2017-05-15T14:38:23.295Z,934.08
2017-05-15T14:39:36.080Z,934.12
2017-05-15T14:40:48.865Z,934.1
2017-05-15T14:42:01.170Z,934.02
2017-05-15T14:43:13.962Z,934.02
2017-05-15T14:44:26.805Z,934
2017-05-15T14:45:39.747Z,934.01
2017-05-15T14:46:52.065Z,933.95
2017-05-15T14:48:03.422Z,933.99
2017-05-15T14:49:15.726Z,933.97
2017-05-15T14:50:28.516Z,933.96
2017-05-15T14:51:41.599Z,933.96
2017-05-15T14:52:54.421Z,933.94
2017-05-15T14:54:06.742Z,933.97
2017-05-15T14:55:19.572Z,933.91
2017-05-15T14:56:32.391Z,933.87
2017-05-15T14:57:44.242Z,933.87
2017-05-15T14:58:57.145Z,933.91
2017-05-15T15:00:09.924Z,933.89
2017-05-15T15:01:22.229Z,933.8
2017-05-15T15:02:35.221Z,933.78
2017-05-15T15:03:47.521Z,933.76
2017-05-15T15:05:00.308Z,933.76
2017-05-15T15:06:12.862Z,933.73
2017-05-15T15:07:25.648Z,933.72
2017-05-15T15:10:05.295Z,933.75
2017-05-15T15:11:17.593Z,933.76
2017-05-15T15:12:29.937Z,933.71